Decoded Metar for FAOR (TAMBO INTL AIRPT in SOUTH AFRICA) (IATA:JNB) | Meteo·Mobile Aviation Weather
aviador You're here:

FAOR Decoded Metar

TAMBO INTL AIRPT in SOUTH AFRICA
Report Time2018-09-22 15:00:00
UTC Time2018-09-22 15:42:40
Flight Rules vfr VFR
Wind340° at 10 kt
W.Rank340° ranks 8
Current wind is above 340° avg. (8.3)
Visibility9999 m
Phenomena:N/A
Clouds:N/A
Expected CloudBase > 6,800 ft AGL from Temp-Dew spread
CeilingNone
Temp25°C (ISA +21)
Dew Point08°C (34% RH)
AAT20.9°C
QNH1023 hPa
Density Alt7,766 ft
Elevation5,550 ft
Report Wrong Elevation
Raw Report
METAR FAOR 221500Z 34010KT 310V010 CAVOK 25/08 Q1023 NOSIG=

Extra information for FAOR:More info

Metar Taf Metar & Taf Last 4 Metars F.Rules Stats Wind Profile Meteogram Temp Stats Airport Information Weather charts Add Link Nearby VenuesMetar ALERT Operation Metar Decoded Social comments